M.t. King Everest — V7DB8 — position and weather

sailwx.info

Track history (hours):
 
Tides and Currents Weather Stations Pressure Air Temp Water Temp Dewpoint Dewpoint Depression Visibility Wind Speed Wind Dir Waves Ship Positions

M.t. King Everest

Last reported at 2014-Sep-07 16:30 UTC. Time now 2014-Sep-20 02:00 UTC.
Position N 61°31' W 004°39'.
Warning: this ship's position is 12 days out of date.

Length 181 m; draft 7.4 m.

Type: Ship. MMSI: 538090267.

Date/timePositionNaut miles runAvg speedWind from/ knotsBaromVisibWave heightAir tempDewpointWater temp
2014-Sep-07 16:30N 61°31' W 004°39'46412.6
2014-Sep-06 03:32N 54°26' W 010°31'1312.8
2014-Sep-06 02:33N 54°14' W 010°37'1313.1
2014-Sep-06 01:33N 54°02' W 010°45'1313.0
2014-Sep-06 00:33N 53°49' W 010°52'16911.9
2014-Sep-05 10:20N 51°03' W 011°44'1313.4
2014-Sep-05 09:20N 50°50' W 011°40'1213.1
2014-Sep-05 08:24N 50°38' W 011°36'  
2014-Sep-02 11:17N 36°39' W 008°48'1213.0
2014-Sep-02 10:20N 36°35' W 008°33'1613.0
2014-Sep-02 09:08N 36°30' W 008°15'812.9
2014-Sep-02 08:31N 36°28' W 008°05'4113.7
2014-Sep-02 05:33N 36°15' W 007°17'1713.3
2014-Sep-02 04:16N 36°10' W 006°57'  
Track history (hours):
 
Tides and Currents Weather Stations Pressure Air Temp Water Temp Dewpoint Dewpoint Depression Visibility Wind Speed Wind Dir Waves Ship Positions

M.t. King Everest

Last reported at 2014-Sep-07 16:30 UTC. Time now 2014-Sep-20 02:00 UTC.
Position N 61°31' W 004°39'.
Warning: this ship's position is 12 days out of date.

Length 181 m; draft 7.4 m.

Type: Ship. MMSI: 538090267.

Date/timePositionNaut miles runAvg speedWind from/ knotsBaromVisibWave heightAir tempDewpointWater temp
2014-Sep-07 16:30N 61°31' W 004°39'46412.6
2014-Sep-06 03:32N 54°26' W 010°31'1312.8
2014-Sep-06 02:33N 54°14' W 010°37'1313.1
2014-Sep-06 01:33N 54°02' W 010°45'1313.0
2014-Sep-06 00:33N 53°49' W 010°52'16911.9
2014-Sep-05 10:20N 51°03' W 011°44'1313.4
2014-Sep-05 09:20N 50°50' W 011°40'1213.1
2014-Sep-05 08:24N 50°38' W 011°36'  
2014-Sep-02 11:17N 36°39' W 008°48'1213.0
2014-Sep-02 10:20N 36°35' W 008°33'1613.0
2014-Sep-02 09:08N 36°30' W 008°15'812.9
2014-Sep-02 08:31N 36°28' W 008°05'4113.7
2014-Sep-02 05:33N 36°15' W 007°17'1713.3
2014-Sep-02 04:16N 36°10' W 006°57'  

Dump ship's entire track history